Time;durP1;ratioP1;P1;durP2;ratioP2;P2;SDS_P1;SDS_P2;PMS_P1;PMS_P2;Temp;Humidity;BMP_temperature;BMP_pressure;BME280_temperature;BME280_humidity;BME280_pressure;Samples;Min_cycle;Max_cycle;Signal;HPM_P1;HPM_P2
2023/01/15 12:28:40;;;;;;;7.57;4.27;;;5.60;99.90;;;;;;5096017;27;1392339;-96
2023/01/15 12:31:14;;;;;;;6.30;4.27;;;5.70;99.90;;;;;;5137318;28;20271;-96
2023/01/15 12:33:45;;;;;;;9.00;5.13;;;5.90;99.90;;;;;;5136523;28;20187;-96
2023/01/15 12:36:18;;;;;;;9.10;6.13;;;6.20;99.90;;;;;;5133896;28;20185;-96
2023/01/15 12:38:53;;;;;;;12.57;7.07;;;6.50;99.90;;;;;;5133650;28;20188;-96
2023/01/15 12:44:58;;;;;;;12.50;7.20;;;6.70;99.90;;;;;;5133789;28;20185;-94
2023/01/15 13:00:18;;;;;;;7.07;4.23;;;7.20;99.90;;;;;;6220008;22;1368324;-96
2023/01/15 13:02:59;;;;;;;8.70;4.33;;;7.70;99.90;;;;;;6249547;23;20180;-96
2023/01/15 13:28:53;;;;;;;4.17;2.60;;;7.60;99.90;;;;;;6208713;23;20199;-96
2023/01/15 13:31:47;;;;;;;8.77;5.83;;;7.60;99.90;;;;;;6212783;23;20157;-96
2023/01/15 13:34:19;;;;;;;7.90;3.27;;;7.50;99.90;;;;;;6215333;23;20174;-96
2023/01/15 13:36:47;;;;;;;6.23;3.00;;;7.60;99.90;;;;;;6215458;23;20158;-96
2023/01/15 13:39:17;;;;;;;5.03;4.00;;;7.50;99.90;;;;;;6213695;23;20166;-96
2023/01/15 13:49:50;;;;;;;5.00;2.70;;;7.40;99.90;;;;;;6220965;23;20193;-96
2023/01/15 14:02:37;;;;;;;5.90;3.50;;;7.10;99.90;;;;;;6177314;23;20200;-96
2023/01/15 14:05:31;;;;;;;4.13;2.90;;;7.10;99.90;;;;;;6207703;23;20159;-96
2023/01/15 14:08:00;;;;;;;6.53;4.17;;;7.10;99.90;;;;;;6208062;23;20205;-96
2023/01/15 14:10:35;;;;;;;5.83;4.00;;;7.00;99.90;;;;;;6209961;23;20153;-96
2023/01/15 14:13:25;;;;;;;4.93;2.70;;;7.00;99.90;;;;;;6212184;23;20190;-96
2023/01/15 14:16:04;;;;;;;6.07;3.00;;;6.90;99.90;;;;;;6211025;23;20170;-96
2023/01/15 14:18:56;;;;;;;4.50;3.17;;;6.80;99.90;;;;;;6211457;23;20181;-96
2023/01/15 14:21:39;;;;;;;5.40;2.97;;;6.70;99.90;;;;;;6188516;23;20192;-96
2023/01/15 14:24:45;;;;;;;4.37;3.17;;;6.60;99.90;;;;;;6189225;23;20194;-96
2023/01/15 14:27:23;;;;;;;6.83;4.10;;;6.60;99.90;;;;;;6189505;23;20153;-96
2023/01/15 14:30:21;;;;;;;7.60;4.57;;;6.50;99.90;;;;;;6190047;23;20208;-96
2023/01/15 14:32:59;;;;;;;8.93;4.60;;;6.40;99.90;;;;;;6189480;23;20541;-95
2023/01/15 14:35:34;;;;;;;6.50;4.20;;;6.40;99.90;;;;;;6191650;23;20158;-96
2023/01/15 14:38:05;;;;;;;5.10;3.67;;;6.40;99.90;;;;;;6192215;23;20597;-95
2023/01/15 14:40:34;;;;;;;6.13;4.10;;;6.30;99.90;;;;;;6192317;23;20150;-96
2023/01/15 14:43:04;;;;;;;7.73;4.97;;;6.20;99.90;;;;;;6192714;23;20177;-95
2023/01/15 14:45:35;;;;;;;11.60;7.20;;;6.10;99.90;;;;;;6192179;23;20224;-94
2023/01/15 14:48:04;;;;;;;9.50;5.60;;;6.10;99.90;;;;;;6192748;23;20182;-96
2023/01/15 14:50:37;;;;;;;6.77;4.20;;;6.00;99.90;;;;;;6192747;23;20185;-96
2023/01/15 14:53:21;;;;;;;6.93;3.90;;;5.90;99.90;;;;;;6193428;23;20241;-96
2023/01/15 14:55:50;;;;;;;6.57;3.80;;;5.90;99.90;;;;;;6192605;23;20161;-95
2023/01/15 14:58:32;;;;;;;7.33;4.60;;;5.90;99.90;;;;;;6191998;23;20169;-95
2023/01/15 15:01:02;;;;;;;7.67;4.57;;;5.90;99.90;;;;;;6192447;23;20160;-94
2023/01/15 15:03:37;;;;;;;7.50;4.90;;;6.00;99.90;;;;;;6192059;23;20197;-95
2023/01/15 15:06:11;;;;;;;8.50;5.20;;;6.00;99.90;;;;;;6191780;23;20486;-93
2023/01/15 15:08:41;;;;;;;7.57;4.77;;;6.00;99.90;;;;;;6191164;23;20216;-96
2023/01/15 15:14:01;;;;;;;9.47;4.47;;;5.90;99.90;;;;;;6189883;23;20163;-95
2023/01/15 15:16:31;;;;;;;7.97;4.97;;;5.80;99.90;;;;;;6192843;23;20169;-96
2023/01/15 15:19:04;;;;;;;6.97;4.50;;;5.80;99.90;;;;;;6192038;23;20168;-94
2023/01/15 15:21:37;;;;;;;10.23;5.90;;;5.70;99.90;;;;;;6191785;23;20272;-95
2023/01/15 15:24:12;;;;;;;23.40;13.13;;;5.60;99.90;;;;;;6192105;23;20169;-94
2023/01/15 15:26:40;;;;;;;19.57;8.90;;;5.50;99.90;;;;;;6191912;23;20157;-95
2023/01/15 15:29:11;;;;;;;13.87;9.80;;;5.50;99.90;;;;;;6191720;23;20189;-95
2023/01/15 15:31:41;;;;;;;14.63;9.23;;;5.40;99.90;;;;;;6191324;23;20148;-95
2023/01/15 15:34:16;;;;;;;10.97;7.10;;;5.40;99.90;;;;;;6191183;23;20626;-94
2023/01/15 15:36:45;;;;;;;15.60;10.50;;;5.40;99.90;;;;;;6191072;23;20156;-95
2023/01/15 15:39:20;;;;;;;15.13;7.37;;;5.30;99.90;;;;;;6192294;23;20522;-96
2023/01/15 15:50:25;;;;;;;10.70;5.10;;;5.10;99.90;;;;;;6125748;23;20155;-96
2023/01/15 15:52:54;;;;;;;16.73;6.67;;;5.20;99.90;;;;;;6125917;23;20225;-95
2023/01/15 15:55:22;;;;;;;10.90;7.30;;;5.20;99.90;;;;;;6125900;23;20212;-95
2023/01/15 15:57:55;;;;;;;7.90;6.33;;;5.30;99.90;;;;;;6124716;23;20179;-95
2023/01/15 16:00:29;;;;;;;12.47;9.37;;;5.30;99.90;;;;;;6125166;23;20679;-96
2023/01/15 16:02:56;;;;;;;14.03;9.67;;;5.30;99.90;;;;;;6127136;23;20229;-96
2023/01/15 16:05:25;;;;;;;12.57;7.87;;;5.20;99.90;;;;;;6128830;23;20209;-95
2023/01/15 16:07:55;;;;;;;7.77;4.43;;;5.20;99.90;;;;;;6126354;23;20226;-95
2023/01/15 16:10:26;;;;;;;5.73;3.67;;;5.10;99.90;;;;;;6126864;23;20194;-96
2023/01/15 16:12:55;;;;;;;5.60;3.97;;;5.10;99.90;;;;;;6126616;23;20171;-96
2023/01/15 16:15:27;;;;;;;9.83;5.70;;;5.10;99.90;;;;;;6127048;23;20181;-96
2023/01/15 16:17:54;;;;;;;8.70;4.47;;;5.10;99.90;;;;;;6131369;23;20160;-96
2023/01/15 16:20:22;;;;;;;13.80;7.23;;;5.00;99.90;;;;;;6187457;23;20172;-96
2023/01/15 16:22:55;;;;;;;12.93;7.90;;;5.00;99.90;;;;;;6189657;23;20172;-96
2023/01/15 16:25:25;;;;;;;9.63;5.93;;;5.00;99.90;;;;;;6189174;23;20219;-96
2023/01/15 16:30:30;;;;;;;6.13;4.97;;;4.90;99.90;;;;;;6186909;23;20227;-96
2023/01/15 16:33:01;;;;;;;7.63;4.03;;;4.90;99.90;;;;;;6200215;23;20215;-96
2023/01/15 16:35:31;;;;;;;5.60;3.30;;;4.80;99.90;;;;;;6199184;23;20155;-96
2023/01/15 16:38:01;;;;;;;6.63;3.47;;;4.80;99.90;;;;;;6201769;23;20274;-96
2023/01/15 16:40:31;;;;;;;3.53;3.17;;;4.80;99.90;;;;;;6198125;23;20152;-95
2023/01/15 16:43:06;;;;;;;5.53;3.00;;;4.80;99.90;;;;;;6195935;23;20224;-96
2023/01/15 16:45:34;;;;;;;4.27;2.47;;;4.80;99.90;;;;;;6192410;23;20224;-96
2023/01/15 16:48:10;;;;;;;4.13;2.90;;;4.80;99.90;;;;;;6191344;23;20180;-96
2023/01/15 16:50:38;;;;;;;4.73;3.63;;;4.80;99.90;;;;;;6191400;23;20163;-95
2023/01/15 16:53:27;;;;;;;4.03;2.53;;;4.80;99.90;;;;;;6191287;23;20500;-96
2023/01/15 16:55:56;;;;;;;2.40;1.87;;;4.80;99.90;;;;;;6190975;23;20193;-95
2023/01/15 16:58:37;;;;;;;3.27;2.43;;;4.80;92.90;;;;;;6191265;23;20168;-96
2023/01/15 17:01:34;;;;;;;3.27;1.90;;;4.80;72.60;;;;;;6189655;23;20179;-95
2023/01/15 17:04:03;;;;;;;6.00;3.07;;;4.80;66.60;;;;;;6191662;23;20220;-96
2023/01/15 17:06:31;;;;;;;4.00;2.27;;;4.90;55.80;;;;;;6195175;23;20171;-96
2023/01/15 17:08:59;;;;;;;3.47;1.87;;;4.80;37.20;;;;;;6193603;23;20192;-96
2023/01/15 17:11:29;;;;;;;3.97;2.50;;;4.80;30.90;;;;;;6193105;23;20181;-96
2023/01/15 17:14:09;;;;;;;2.97;1.77;;;4.80;19.90;;;;;;6195465;23;20175;-96
2023/01/15 17:16:36;;;;;;;4.37;1.97;;;4.80;19.10;;;;;;6196977;23;20161;-96
2023/01/15 17:19:07;;;;;;;5.33;2.43;;;4.80;1.00;;;;;;6197364;23;20172;-96
2023/01/15 17:21:36;;;;;;;10.43;3.20;;;4.90;1.00;;;;;;6195133;23;20159;-96
2023/01/15 17:24:05;;;;;;;7.30;2.63;;;4.90;1.00;;;;;;6199009;23;20171;-96
2023/01/15 17:26:33;;;;;;;6.23;3.27;;;4.90;1.00;;;;;;6200054;23;20173;-96
2023/01/15 17:29:00;;;;;;;7.53;3.17;;;4.90;1.00;;;;;;6194067;23;20222;-96
2023/01/15 17:31:29;;;;;;;7.33;3.53;;;4.80;1.00;;;;;;6194738;23;20199;-96
2023/01/15 17:33:57;;;;;;;7.17;3.00;;;4.80;1.00;;;;;;6197902;23;20173;-96
2023/01/15 17:36:25;;;;;;;5.60;2.63;;;4.80;1.00;;;;;;6201094;23;20170;-96
2023/01/15 17:38:52;;;;;;;5.70;2.77;;;4.80;1.00;;;;;;6208309;23;20179;-96
2023/01/15 17:41:23;;;;;;;5.40;2.20;;;4.80;1.00;;;;;;6210107;23;20172;-96
2023/01/15 17:43:50;;;;;;;6.23;3.00;;;4.80;1.00;;;;;;6207275;23;20176;-96
2023/01/15 17:46:17;;;;;;;5.73;2.67;;;4.70;1.00;;;;;;6206880;23;20174;-96
2023/01/15 17:48:45;;;;;;;3.93;2.00;;;4.70;1.00;;;;;;6201106;23;20202;-96
2023/01/15 17:51:14;;;;;;;2.93;1.50;;;4.70;1.00;;;;;;6202243;23;20251;-96
2023/01/15 17:53:42;;;;;;;4.57;1.87;;;4.70;1.00;;;;;;6206763;23;20187;-95
2023/01/15 18:07:19;;;;;;;14.10;4.80;;;4.50;1.00;;;;;;6212556;23;20160;-96
2023/01/15 18:09:47;;;;;;;6.27;2.97;;;4.60;1.00;;;;;;6214576;23;20199;-96
2023/01/15 18:12:14;;;;;;;14.30;6.10;;;4.60;1.00;;;;;;6214058;23;20165;-96
2023/01/15 18:14:42;;;;;;;7.63;3.53;;;4.60;1.00;;;;;;6213167;23;20217;-96
2023/01/15 18:17:11;;;;;;;7.83;3.47;;;4.60;1.00;;;;;;6211588;23;20187;-96
2023/01/15 18:19:38;;;;;;;6.30;2.70;;;4.60;1.00;;;;;;6212074;23;20188;-96
2023/01/15 18:22:06;;;;;;;6.77;3.40;;;4.60;1.00;;;;;;6212276;23;20176;-96
2023/01/15 18:24:33;;;;;;;9.97;4.33;;;4.60;1.00;;;;;;6211128;23;20207;-96
2023/01/15 18:27:00;;;;;;;5.27;2.20;;;4.60;1.00;;;;;;6211212;23;20177;-96
2023/01/15 18:29:27;;;;;;;6.40;2.50;;;4.60;1.00;;;;;;6213612;23;20238;-96
2023/01/15 18:31:55;;;;;;;5.77;2.23;;;4.60;1.00;;;;;;6212899;23;20160;-96
2023/01/15 18:34:23;;;;;;;4.23;2.17;;;4.50;1.00;;;;;;6213225;23;20165;-96
2023/01/15 18:36:50;;;;;;;4.20;2.20;;;4.50;1.00;;;;;;6210036;23;20180;-96
2023/01/15 18:39:17;;;;;;;4.97;2.33;;;4.50;1.00;;;;;;6210111;23;20174;-96
2023/01/15 18:47:16;;;;;;;3.07;1.80;;;4.50;1.00;;;;;;6212154;23;20158;-96
2023/01/15 18:49:45;;;;;;;4.60;2.37;;;4.50;1.00;;;;;;6212186;23;20186;-96
2023/01/15 18:57:28;;;;;;;5.63;2.10;;;4.40;1.00;;;;;;6208486;23;20205;-96
2023/01/15 18:59:55;;;;;;;3.53;2.50;;;4.40;1.00;;;;;;6212725;23;20153;-96
2023/01/15 19:02:23;;;;;;;5.13;2.97;;;4.40;1.00;;;;;;6211410;23;20251;-96
2023/01/15 19:04:50;;;;;;;4.80;2.80;;;4.40;1.00;;;;;;6212486;23;20192;-96
2023/01/15 19:07:18;;;;;;;4.30;2.20;;;4.40;1.00;;;;;;6206986;23;20175;-96
2023/01/15 19:09:45;;;;;;;5.17;1.90;;;4.40;1.00;;;;;;6210270;23;20218;-96
2023/01/15 19:12:13;;;;;;;5.37;2.17;;;4.40;1.00;;;;;;6211299;23;20204;-96
2023/01/15 19:20:14;;;;;;;2.33;1.20;;;4.40;1.00;;;;;;6207909;23;20163;-96
2023/01/15 19:23:00;;;;;;;2.97;1.60;;;4.50;1.00;;;;;;6208250;23;20185;-96
2023/01/15 19:25:28;;;;;;;3.37;2.03;;;4.50;1.00;;;;;;6209684;23;20154;-96
2023/01/15 19:27:56;;;;;;;5.77;3.70;;;4.40;1.00;;;;;;6212059;23;20153;-96
2023/01/15 19:30:24;;;;;;;6.10;2.73;;;4.40;1.00;;;;;;6210352;23;20217;-96
2023/01/15 19:32:53;;;;;;;3.40;2.77;;;4.40;1.00;;;;;;6212657;23;20193;-96
2023/01/15 19:35:20;;;;;;;2.10;1.50;;;4.40;1.00;;;;;;6212005;23;20158;-96
2023/01/15 19:37:48;;;;;;;2.90;1.83;;;4.40;1.00;;;;;;6212235;23;20175;-96
2023/01/15 19:50:59;;;;;;;6.70;1.63;;;4.30;99.90;;;;;;6153835;23;20205;-96
2023/01/15 19:53:27;;;;;;;2.83;1.60;;;4.40;99.90;;;;;;6153982;23;20154;-96
2023/01/15 19:55:54;;;;;;;2.37;1.10;;;4.30;99.90;;;;;;6151921;23;20204;-96
2023/01/15 19:58:21;;;;;;;3.73;1.20;;;4.30;99.90;;;;;;6150557;23;20195;-96
2023/01/15 20:00:51;;;;;;;2.50;1.10;;;4.30;99.90;;;;;;6149808;23;20211;-94
2023/01/15 20:03:20;;;;;;;3.47;1.83;;;4.30;99.90;;;;;;6176349;23;20249;-94
2023/01/15 20:16:14;;;;;;;3.97;1.50;;;4.20;99.90;;;;;;6176751;23;20187;-92
2023/01/15 20:37:37;;;;;;;1.83;1.30;;;4.40;99.90;;;;;;6194428;23;20201;-96
2023/01/15 20:40:05;;;;;;;3.33;1.27;;;4.50;99.90;;;;;;6196953;23;20189;-96
2023/01/15 20:45:16;;;;;;;4.37;1.40;;;4.40;99.90;;;;;;6108491;23;20235;-96
2023/01/15 20:50:32;;;;;;;3.27;1.27;;;4.30;99.90;;;;;;6101791;23;20217;-95
2023/01/15 20:53:01;;;;;;;2.13;1.30;;;4.30;99.90;;;;;;6103441;23;20234;-96
2023/01/15 20:55:31;;;;;;;3.10;1.40;;;4.30;99.90;;;;;;6103792;23;20186;-95
2023/01/15 20:57:58;;;;;;;2.17;1.30;;;4.20;99.90;;;;;;6096546;23;20171;-96
2023/01/15 21:00:25;;;;;;;2.90;1.30;;;4.20;99.90;;;;;;6098779;23;20646;-96
2023/01/15 21:02:53;;;;;;;3.30;1.40;;;4.20;99.90;;;;;;6102149;23;20200;-96
2023/01/15 21:05:21;;;;;;;2.03;1.27;;;4.20;99.90;;;;;;6108525;23;20188;-96
2023/01/15 21:07:48;;;;;;;2.67;1.40;;;4.20;99.90;;;;;;6116811;23;20175;-96
2023/01/15 21:10:17;;;;;;;2.70;1.40;;;4.20;99.90;;;;;;6113879;23;20203;-96
2023/01/15 21:12:44;;;;;;;2.30;1.47;;;4.20;99.90;;;;;;6110626;23;20164;-95
2023/01/15 21:15:12;;;;;;;4.43;1.80;;;4.20;99.90;;;;;;6110627;23;20166;-96
2023/01/15 21:17:39;;;;;;;4.23;1.60;;;4.20;99.90;;;;;;6147562;23;20271;-96
2023/01/15 21:20:08;;;;;;;4.00;1.70;;;4.20;99.90;;;;;;6175947;23;20494;-96
2023/01/15 21:22:36;;;;;;;3.10;1.50;;;4.20;99.90;;;;;;6171685;23;20202;-96
2023/01/15 21:25:03;;;;;;;2.03;1.20;;;4.20;99.90;;;;;;6177616;23;21107;-95
2023/01/15 21:27:32;;;;;;;2.70;1.40;;;4.20;99.90;;;;;;6212211;23;20171;-96
2023/01/15 21:30:00;;;;;;;2.70;1.40;;;4.20;99.90;;;;;;6207911;23;20189;-96
2023/01/15 21:46:02;;;;;;;3.40;1.70;;;4.10;99.90;;;;;;6164017;23;20197;31
2023/01/15 21:56:15;;;;;;;2.80;1.70;;;4.00;99.90;;;;;;6204310;23;20643;-95
2023/01/15 21:58:42;;;;;;;5.30;1.53;;;4.10;99.90;;;;;;6195281;23;20172;-95
2023/01/15 22:01:13;;;;;;;3.07;1.43;;;4.00;99.90;;;;;;6191163;23;20176;-96
2023/01/15 22:03:40;;;;;;;1.97;1.53;;;4.00;99.90;;;;;;6196181;23;20154;-95
2023/01/15 22:06:09;;;;;;;6.83;2.13;;;4.00;99.90;;;;;;6191036;23;20227;-95
2023/01/15 22:08:36;;;;;;;4.13;2.00;;;4.00;99.90;;;;;;6191006;23;20176;-96
2023/01/15 22:11:05;;;;;;;1.73;1.50;;;4.00;99.90;;;;;;6205012;23;20194;-96
2023/01/15 22:13:33;;;;;;;2.70;1.20;;;4.00;99.90;;;;;;6203833;23;20205;-96
2023/01/15 22:16:03;;;;;;;4.47;1.60;;;4.00;99.90;;;;;;6191665;23;20180;-96
2023/01/15 22:18:32;;;;;;;3.37;1.33;;;4.10;99.90;;;;;;6192054;23;20185;-96
2023/01/15 22:21:00;;;;;;;2.70;1.33;;;4.10;99.90;;;;;;6192681;23;20646;-96
2023/01/15 22:23:27;;;;;;;2.73;1.40;;;4.10;99.90;;;;;;6192394;23;20169;-96
2023/01/15 22:25:55;;;;;;;4.03;1.40;;;4.10;99.90;;;;;;6192584;23;20173;-96
2023/01/15 22:28:22;;;;;;;3.57;1.23;;;4.10;99.90;;;;;;6192308;23;20169;-96
2023/01/15 22:30:49;;;;;;;2.93;1.40;;;4.10;99.90;;;;;;6193232;23;20243;-96
2023/01/15 22:33:17;;;;;;;3.43;1.17;;;4.10;99.90;;;;;;6195061;23;20173;-96
2023/01/15 22:35:45;;;;;;;3.17;1.20;;;4.00;99.90;;;;;;6199241;23;20248;-96
2023/01/15 22:38:12;;;;;;;4.93;1.70;;;4.00;99.90;;;;;;6201263;23;20177;-96
2023/01/15 22:40:39;;;;;;;4.17;1.67;;;4.00;99.90;;;;;;6204959;23;20199;-96
2023/01/15 22:43:07;;;;;;;2.57;1.53;;;4.10;99.90;;;;;;6207106;23;20164;-96
2023/01/15 22:45:34;;;;;;;2.30;1.30;;;4.00;99.90;;;;;;6207152;23;20177;-96
2023/01/15 22:48:01;;;;;;;1.17;0.90;;;4.00;99.90;;;;;;6211327;23;20180;-96
2023/01/15 22:50:31;;;;;;;2.70;1.40;;;4.00;99.90;;;;;;6203877;23;20225;-96
2023/01/15 22:52:59;;;;;;;2.87;1.33;;;4.00;99.90;;;;;;6201758;23;20201;-96
2023/01/15 22:55:26;;;;;;;4.37;1.70;;;4.00;99.90;;;;;;6207203;23;20171;-96
2023/01/15 22:57:53;;;;;;;3.40;2.10;;;4.00;99.90;;;;;;6204888;23;20178;-96
